Aviation Digital Data Service (ADDS)

Output produced by METARs form (2344 UTC 03 July 2015)
found at http://aviationweather.gov/adds/metars/
 
KSYR 032322Z 0400/0424 VRB02KT P6SM FEW250 
     FM040800 VRB03KT P6SM BKN035 OVC100 
     TEMPO 0408/0412 6SM -SHRA 
     FM041600 20007KT P6SM BKN035 OVC120 
     TEMPO 0416/0420 6SM -SHRA 
     FM042200 25006KT 6SM -SHRA BKN030